Time;durP1;ratioP1;P1;durP2;ratioP2;P2;SDS_P1;SDS_P2;PMS_P1;PMS_P2;Temp;Humidity;BMP_temperature;BMP_pressure;BME280_temperature;BME280_humidity;BME280_pressure;Samples;Min_cycle;Max_cycle;Signal;HPM_P1;HPM_P2
2022/09/25 00:01:12;;;;;;;9.75;2.50;;;;;;;10.51;100.00;101447.44;4915505;29;20469;-85
2022/09/25 00:03:39;;;;;;;7.77;2.63;;;;;;;10.44;100.00;101439.56;4902548;29;20044;-86
2022/09/25 00:06:16;;;;;;;9.40;2.60;;;;;;;10.44;100.00;101452.16;4893708;29;20081;-86
2022/09/25 00:08:41;;;;;;;12.05;3.08;;;;;;;10.42;100.00;101444.34;4891186;29;20051;-85
2022/09/25 00:11:09;;;;;;;10.40;3.33;;;;;;;10.43;100.00;101455.88;4893764;29;20151;-86
2022/09/25 00:13:35;;;;;;;9.77;3.33;;;;;;;10.38;100.00;101453.06;4894133;29;20395;-86
2022/09/25 00:16:01;;;;;;;17.33;3.28;;;;;;;10.33;100.00;101456.50;4894979;29;20035;-85
2022/09/25 00:21:14;;;;;;;13.83;2.73;;;;;;;10.31;100.00;101453.22;4893919;29;20128;-85
2022/09/25 00:23:42;;;;;;;9.53;2.77;;;;;;;10.31;100.00;101466.63;4892768;29;20332;-85
2022/09/25 00:26:08;;;;;;;12.57;2.75;;;;;;;10.23;100.00;101453.59;4895136;29;20107;-85
2022/09/25 00:28:35;;;;;;;8.40;2.58;;;;;;;10.19;100.00;101455.97;4894545;29;20044;-85
2022/09/25 00:31:03;;;;;;;11.07;2.80;;;;;;;10.19;100.00;101460.50;4894377;29;20106;-86
2022/09/25 00:33:29;;;;;;;8.82;2.22;;;;;;;10.13;100.00;101462.28;4893556;29;20028;-85
2022/09/25 00:35:59;;;;;;;12.70;2.53;;;;;;;9.97;100.00;101447.78;4892523;29;20036;-86
2022/09/25 00:38:24;;;;;;;13.10;2.83;;;;;;;10.02;100.00;101458.59;4892271;29;20040;-86
2022/09/25 00:40:50;;;;;;;11.02;2.35;;;;;;;9.96;100.00;101462.22;4894408;29;20461;-85
2022/09/25 00:43:32;;;;;;;10.87;2.43;;;;;;;9.88;100.00;101457.22;4893671;29;20039;-85
2022/09/25 00:45:59;;;;;;;13.52;2.70;;;;;;;9.90;100.00;101461.31;4894634;29;20404;-86
2022/09/25 00:48:25;;;;;;;8.77;2.28;;;;;;;9.83;100.00;101453.41;4894640;29;20039;-85
2022/09/25 00:50:54;;;;;;;8.87;2.47;;;;;;;9.93;100.00;101460.00;4894209;29;20032;-85
2022/09/25 00:53:32;;;;;;;12.65;2.47;;;;;;;9.88;100.00;101444.69;4893654;29;20020;-85
2022/09/25 00:56:01;;;;;;;9.50;2.35;;;;;;;9.92;100.00;101469.09;4896528;29;20033;-85
2022/09/25 00:58:31;;;;;;;10.65;2.75;;;;;;;9.93;100.00;101458.16;4898040;29;20046;-85
2022/09/25 01:00:58;;;;;;;11.57;2.47;;;;;;;9.84;100.00;101454.22;4897776;29;20033;-86
2022/09/25 01:03:26;;;;;;;5.63;2.10;;;;;;;9.81;100.00;101457.38;4896148;29;20307;-86
2022/09/25 01:05:53;;;;;;;11.07;2.40;;;;;;;9.76;100.00;101455.41;4897111;29;20029;-86
2022/09/25 01:08:24;;;;;;;13.38;2.50;;;;;;;9.74;100.00;101457.50;4896273;29;20028;-86
2022/09/25 01:10:50;;;;;;;5.93;2.33;;;;;;;9.76;100.00;101468.78;4896140;29;20020;-86
2022/09/25 01:13:16;;;;;;;7.20;2.88;;;;;;;9.73;100.00;101468.47;4895617;29;20044;-85
2022/09/25 01:15:52;;;;;;;8.87;2.27;;;;;;;9.70;100.00;101467.06;4894868;29;20085;-86
2022/09/25 01:18:42;;;;;;;10.80;2.38;;;;;;;9.65;100.00;101469.63;4897799;29;20153;-85
2022/09/25 01:21:26;;;;;;;9.10;2.53;;;;;;;9.60;100.00;101473.00;4897448;29;20039;-86
2022/09/25 01:24:08;;;;;;;8.75;2.40;;;;;;;9.46;100.00;101464.44;4896162;29;20046;-86
2022/09/25 01:26:52;;;;;;;6.25;2.28;;;;;;;9.51;100.00;101472.53;4894769;29;20085;-86
2022/09/25 01:29:26;;;;;;;12.02;3.47;;;;;;;9.46;100.00;101475.13;4897946;29;20032;-86
2022/09/25 01:32:02;;;;;;;7.50;2.50;;;;;;;9.40;100.00;101474.19;4895827;29;20534;-85
2022/09/25 01:34:37;;;;;;;12.10;2.47;;;;;;;9.38;100.00;101473.63;4895638;29;20033;-86
2022/09/25 01:37:17;;;;;;;8.37;2.17;;;;;;;9.34;100.00;101476.97;4898238;29;20032;-85
2022/09/25 01:39:55;;;;;;;12.30;2.90;;;;;;;9.26;100.00;101472.81;4897536;29;20312;-86
2022/09/25 01:42:26;;;;;;;11.23;2.80;;;;;;;9.19;100.00;101475.59;4896667;29;20138;-85
2022/09/25 01:44:57;;;;;;;12.00;2.78;;;;;;;9.14;100.00;101472.78;4896261;29;20374;-87
2022/09/25 01:47:27;;;;;;;11.70;2.63;;;;;;;9.07;100.00;101470.25;4896774;29;20045;-86
2022/09/25 01:50:05;;;;;;;13.23;3.08;;;;;;;9.03;100.00;101470.94;4897612;29;20032;-85
2022/09/25 01:52:37;;;;;;;10.50;3.40;;;;;;;8.97;100.00;101474.53;4896256;29;20044;-85
2022/09/25 01:55:20;;;;;;;8.40;3.20;;;;;;;8.96;100.00;101483.59;4895913;29;20040;-86
2022/09/25 01:58:02;;;;;;;12.07;3.00;;;;;;;8.86;100.00;101474.28;4895638;29;20039;-86
2022/09/25 02:00:28;;;;;;;14.10;3.05;;;;;;;8.86;100.00;101484.97;4896857;29;20037;-86
2022/09/25 02:02:58;;;;;;;10.43;2.90;;;;;;;8.79;100.00;101486.94;4899875;29;20544;-87
2022/09/25 02:05:39;;;;;;;11.50;2.95;;;;;;;8.74;100.00;101481.47;4896320;29;20066;-86
2022/09/25 02:08:20;;;;;;;12.48;3.50;;;;;;;8.72;100.00;101478.22;4895557;29;20028;-85
2022/09/25 02:11:01;;;;;;;12.48;3.80;;;;;;;8.62;100.00;101471.56;4895162;29;20039;-85
2022/09/25 02:13:36;;;;;;;16.25;3.20;;;;;;;8.65;100.00;101486.34;4891443;29;20089;-85
2022/09/25 02:16:09;;;;;;;13.95;3.38;;;;;;;8.57;100.00;101478.66;4897031;29;20027;-85
2022/09/25 02:21:43;;;;;;;8.37;2.93;;;;;;;8.51;100.00;101476.88;4897279;29;20047;-85
2022/09/25 02:24:20;;;;;;;10.23;3.27;;;;;;;8.43;100.00;101476.16;4893868;29;20307;-83
2022/09/25 02:26:46;;;;;;;8.02;2.85;;;;;;;8.38;100.00;101473.31;4895062;29;20442;-84
2022/09/25 02:29:12;;;;;;;10.10;2.83;;;;;;;8.27;100.00;101469.56;4894892;29;20124;-83
2022/09/25 02:31:43;;;;;;;10.80;3.45;;;;;;;8.19;100.00;101469.91;4895731;29;20127;-85
2022/09/25 02:34:10;;;;;;;8.53;3.17;;;;;;;8.13;100.00;101468.13;4893998;29;20029;-83
2022/09/25 02:36:35;;;;;;;6.63;2.70;;;;;;;8.08;100.00;101478.66;4896304;29;20799;-85
2022/09/25 02:39:06;;;;;;;8.00;3.05;;;;;;;8.03;100.00;101474.78;4895953;29;20032;-84
2022/09/25 02:41:43;;;;;;;12.90;3.53;;;;;;;7.96;100.00;101479.41;4894826;29;20056;-84
2022/09/25 02:44:20;;;;;;;13.57;3.00;;;;;;;7.91;100.00;101476.59;4894157;29;20800;-87
2022/09/25 02:47:23;;;;;;;8.38;3.00;;;;;;;7.88;100.00;101471.72;4896335;29;20033;-84
2022/09/25 02:50:04;;;;;;;7.80;3.30;;;;;;;7.86;100.00;101466.59;4895391;29;20424;-85
2022/09/25 02:52:47;;;;;;;8.27;2.90;;;;;;;7.88;100.00;101472.53;4895381;29;20051;-84
2022/09/25 02:55:34;;;;;;;11.82;2.95;;;;;;;7.83;100.00;101474.25;4877088;29;20540;-84
2022/09/25 02:58:10;;;;;;;10.20;3.47;;;;;;;7.80;100.00;101466.69;4884137;29;20074;-85
2022/09/25 03:00:37;;;;;;;11.90;3.00;;;;;;;7.81;100.00;101466.44;4892629;29;20396;-84
2022/09/25 03:03:07;;;;;;;12.40;3.15;;;;;;;7.75;100.00;101455.88;4876854;29;20530;-84
2022/09/25 03:05:33;;;;;;;10.73;3.20;;;;;;;7.68;100.00;101456.75;4877128;29;20033;-85
2022/09/25 03:10:45;;;;;;;7.60;2.93;;;;;;;7.54;100.00;101447.25;4877708;29;20316;-85
2022/09/25 03:13:20;;;;;;;9.65;3.00;;;;;;;7.51;100.00;101450.38;4876775;29;20036;-85
2022/09/25 03:15:50;;;;;;;8.90;3.00;;;;;;;7.49;100.00;101453.28;4888222;29;20081;-85
2022/09/25 03:18:16;;;;;;;13.18;2.88;;;;;;;7.49;100.00;101463.09;4886704;29;20033;-84
2022/09/25 03:20:42;;;;;;;7.10;3.20;;;;;;;7.42;100.00;101455.19;4893080;29;20624;-85
2022/09/25 03:23:07;;;;;;;13.83;3.37;;;;;;;7.38;100.00;101456.69;4895432;29;20116;-85
2022/09/25 03:25:33;;;;;;;8.70;3.23;;;;;;;7.32;100.00;101458.34;4867223;29;20489;-85
2022/09/25 03:27:58;;;;;;;11.60;3.37;;;;;;;7.29;100.00;101456.16;4895207;29;20811;-85
2022/09/25 03:30:23;;;;;;;12.10;3.30;;;;;;;7.28;100.00;101455.31;4894803;29;20429;-85
2022/09/25 03:32:49;;;;;;;9.27;3.47;;;;;;;7.27;100.00;101461.69;4891986;29;20060;-84
2022/09/25 03:35:14;;;;;;;13.73;3.40;;;;;;;7.27;100.00;101466.22;4893416;29;20029;-85
2022/09/25 03:37:39;;;;;;;8.93;3.15;;;;;;;7.25;100.00;101468.28;4894693;29;20106;-85
2022/09/25 03:40:06;;;;;;;7.77;3.13;;;;;;;7.19;100.00;101469.97;4893947;29;20036;-85
2022/09/25 03:42:32;;;;;;;6.60;3.03;;;;;;;7.17;100.00;101460.56;4895185;29;20040;-85
2022/09/25 03:44:58;;;;;;;5.57;3.30;;;;;;;7.13;100.00;101454.84;4893409;29;20044;-85
2022/09/25 03:47:23;;;;;;;11.53;3.20;;;;;;;7.07;100.00;101439.72;4893891;29;20028;-85
2022/09/25 03:49:48;;;;;;;9.90;3.37;;;;;;;7.14;100.00;101461.81;4893741;29;20036;-85
2022/09/25 03:52:14;;;;;;;12.73;3.40;;;;;;;7.10;100.00;101468.63;4894228;29;20036;-85
2022/09/25 03:54:39;;;;;;;12.33;3.60;;;;;;;7.00;100.00;101461.09;4894247;29;20048;-86
2022/09/25 03:57:05;;;;;;;12.13;3.28;;;;;;;7.00;100.00;101465.63;4895205;29;20032;-84
2022/09/25 03:59:30;;;;;;;5.50;2.90;;;;;;;6.96;100.00;101475.91;4893747;29;20066;-84
2022/09/25 04:01:56;;;;;;;8.93;3.33;;;;;;;6.84;100.00;101454.50;4894300;29;20100;-84
2022/09/25 04:04:22;;;;;;;8.90;3.40;;;;;;;6.80;100.00;101462.09;4892912;29;20312;-84
2022/09/25 04:06:47;;;;;;;10.80;3.70;;;;;;;6.87;100.00;101471.88;4894956;29;20033;-84
2022/09/25 04:09:12;;;;;;;12.17;3.57;;;;;;;6.87;100.00;101462.03;4895096;29;20330;-84
2022/09/25 04:11:37;;;;;;;8.57;3.93;;;;;;;6.78;100.00;101453.50;4893966;29;20115;-84
2022/09/25 04:14:04;;;;;;;9.13;3.60;;;;;;;6.85;100.00;101465.94;4893759;29;20527;-84
2022/09/25 04:16:30;;;;;;;16.65;4.15;;;;;;;6.82;100.00;101454.69;4894229;29;20044;-84
2022/09/25 04:18:56;;;;;;;9.35;4.40;;;;;;;6.89;100.00;101469.81;4894058;29;20096;-84
2022/09/25 04:21:23;;;;;;;13.10;4.20;;;;;;;6.86;100.00;101468.38;4891921;29;20037;-84
2022/09/25 04:26:33;;;;;;;13.18;3.70;;;;;;;6.73;100.00;101444.53;4894887;29;20496;-84
2022/09/25 04:29:02;;;;;;;12.20;4.45;;;;;;;6.67;100.00;101443.56;4895622;29;20029;-84
2022/09/25 04:31:28;;;;;;;12.50;3.88;;;;;;;6.71;100.00;101450.09;4896587;29;20404;-84
2022/09/25 04:33:54;;;;;;;10.98;3.88;;;;;;;6.66;100.00;101450.72;4883765;29;20119;-84
2022/09/25 04:36:19;;;;;;;12.77;4.10;;;;;;;6.62;100.00;101454.03;4897599;29;20124;-84
2022/09/25 04:38:47;;;;;;;13.40;4.10;;;;;;;6.53;100.00;101452.66;4897641;29;20107;-84
2022/09/25 04:41:15;;;;;;;11.60;4.03;;;;;;;6.45;100.00;101453.75;4896260;29;20036;-84
2022/09/25 04:43:42;;;;;;;12.75;4.03;;;;;;;6.48;100.00;101458.66;4895658;29;20040;-84
2022/09/25 04:46:09;;;;;;;13.52;4.25;;;;;;;6.49;100.00;101454.91;4898762;29;20064;-84
2022/09/25 04:48:35;;;;;;;10.00;3.90;;;;;;;6.49;100.00;101460.25;4897059;29;20107;-84
2022/09/25 04:51:00;;;;;;;13.90;4.70;;;;;;;6.48;100.00;101451.47;4897759;29;20553;-84
2022/09/25 04:53:28;;;;;;;10.68;4.15;;;;;;;6.44;100.00;101442.25;4895391;29;20799;-84
2022/09/25 04:55:59;;;;;;;14.25;4.10;;;;;;;6.41;100.00;101456.00;4898196;29;20055;-85
2022/09/25 04:58:25;;;;;;;10.13;4.23;;;;;;;6.19;100.00;101426.25;4897785;29;20428;-84
2022/09/25 05:00:50;;;;;;;10.43;4.67;;;;;;;6.31;100.00;101453.81;4897800;29;20289;-85
2022/09/25 05:03:15;;;;;;;11.80;4.37;;;;;;;6.33;100.00;101448.28;4897182;29;20131;-84
2022/09/25 05:05:41;;;;;;;11.00;4.73;;;;;;;6.34;100.00;101452.56;4897360;29;20024;-83
2022/09/25 05:08:06;;;;;;;8.50;4.23;;;;;;;6.26;100.00;101444.84;4897531;29;20048;-84
2022/09/25 05:10:38;;;;;;;12.20;4.57;;;;;;;6.24;100.00;101445.06;4894243;29;20029;-84
2022/09/25 05:13:04;;;;;;;12.60;5.05;;;;;;;6.24;100.00;101457.53;4897225;29;20089;-84
2022/09/25 05:15:32;;;;;;;10.00;4.53;;;;;;;6.19;100.00;101445.69;4896168;29;20469;-86
2022/09/25 05:18:00;;;;;;;10.10;4.78;;;;;;;6.19;100.00;101448.38;4897813;29;20047;-84
2022/09/25 05:20:25;;;;;;;8.32;4.72;;;;;;;6.22;100.00;101445.25;4897403;29;20116;-85
2022/09/25 05:22:55;;;;;;;10.53;4.57;;;;;;;6.19;100.00;101439.56;4896266;29;20536;-84
2022/09/25 05:25:22;;;;;;;13.05;4.88;;;;;;;6.13;100.00;101425.25;4894426;29;20021;-87
2022/09/25 05:27:48;;;;;;;9.18;4.32;;;;;;;6.12;100.00;101439.59;4895908;29;20051;-87
2022/09/25 05:30:14;;;;;;;11.13;4.72;;;;;;;6.09;100.00;101439.22;4897075;29;20029;-87
2022/09/25 05:32:48;;;;;;;11.07;4.83;;;;;;;6.02;100.00;101444.56;4893494;29;20036;-88
2022/09/25 05:35:13;;;;;;;11.77;4.63;;;;;;;5.99;100.00;101439.63;4897884;29;20075;-87
2022/09/25 05:37:38;;;;;;;12.23;4.57;;;;;;;6.00;100.00;101441.28;4896880;29;20485;-87
2022/09/25 05:40:04;;;;;;;10.67;4.97;;;;;;;6.02;100.00;101433.91;4895366;29;20044;-87
2022/09/25 05:42:30;;;;;;;12.70;5.05;;;;;;;6.00;100.00;101443.97;4895617;29;20032;-88
2022/09/25 05:44:55;;;;;;;19.13;5.63;;;;;;;5.99;100.00;101434.31;4900859;29;20036;-89
2022/09/25 05:47:20;;;;;;;14.60;5.80;;;;;;;6.10;100.00;101451.47;4900704;29;20536;-87
2022/09/25 05:49:45;;;;;;;12.93;5.73;;;;;;;6.07;100.00;101455.38;4901277;29;20480;-89
2022/09/25 05:52:11;;;;;;;16.77;6.03;;;;;;;6.08;100.00;101448.22;4897906;29;20085;-88
2022/09/25 05:54:36;;;;;;;14.93;5.70;;;;;;;6.11;100.00;101455.78;4882880;29;20415;-88
2022/09/25 05:57:01;;;;;;;11.17;5.67;;;;;;;6.04;100.00;101442.47;4898748;29;20025;-88
2022/09/25 05:59:27;;;;;;;17.50;6.30;;;;;;;6.09;100.00;101449.84;4888648;29;20048;-88
2022/09/25 06:02:05;;;;;;;14.75;5.40;;;;;;;6.17;100.00;101461.06;4880080;29;20108;-88
2022/09/25 06:04:30;;;;;;;12.23;5.73;;;;;;;6.19;100.00;101450.19;4884148;29;20036;-89
2022/09/25 06:06:55;;;;;;;12.13;5.97;;;;;;;6.26;100.00;101452.81;4885168;29;20321;-90
2022/09/25 06:09:20;;;;;;;13.90;6.50;;;;;;;6.33;100.00;101457.06;4900741;29;20036;-87
2022/09/25 06:11:46;;;;;;;13.33;5.80;;;;;;;6.32;100.00;101459.97;4898610;29;20039;-88
2022/09/25 06:14:13;;;;;;;13.40;5.60;;;;;;;6.24;100.00;101444.22;4888833;29;20108;-87
2022/09/25 06:16:39;;;;;;;11.55;6.03;;;;;;;6.30;100.00;101460.16;4881009;29;20025;-87
2022/09/25 06:19:04;;;;;;;12.43;5.78;;;;;;;6.35;100.00;101459.53;4890890;29;20043;-87
2022/09/25 06:21:29;;;;;;;17.60;6.67;;;;;;;6.43;100.00;101463.78;4881722;29;20029;-87
2022/09/25 06:23:55;;;;;;;13.77;6.33;;;;;;;6.40;100.00;101448.25;4880635;29;20029;-87
2022/09/25 06:26:20;;;;;;;15.07;6.80;;;;;;;6.52;100.00;101465.16;4887088;29;20033;-90
2022/09/25 06:28:45;;;;;;;16.90;7.47;;;;;;;6.63;100.00;101466.31;4904147;29;20039;-90
2022/09/25 06:31:11;;;;;;;21.77;7.70;;;;;;;6.66;100.00;101449.91;4901804;29;20454;-88
2022/09/25 06:33:36;;;;;;;15.83;7.77;;;;;;;6.75;100.00;101456.63;4901193;29;20043;-87
2022/09/25 06:36:05;;;;;;;22.67;7.90;;;;;;;6.82;100.00;101460.03;4880556;29;20037;-87
2022/09/25 06:38:33;;;;;;;21.80;7.47;;;;;;;6.85;100.00;101469.41;4886480;29;20068;-89
2022/09/25 06:41:00;;;;;;;18.88;8.18;;;;;;;6.95;100.00;101468.94;4900356;29;20036;-89
2022/09/25 06:43:34;;;;;;;20.27;8.10;;;;;;;6.96;100.00;101462.56;4902507;29;20033;-88
2022/09/25 06:46:03;;;;;;;17.20;8.30;;;;;;;7.06;100.00;101465.56;4902009;29;20033;-88
2022/09/25 06:48:29;;;;;;;19.27;8.27;;;;;;;7.22;100.00;101468.72;4901391;29;20437;-88
2022/09/25 06:51:03;;;;;;;23.10;9.07;;;;;;;7.32;100.00;101471.69;4904018;29;20348;-87
2022/09/25 06:53:29;;;;;;;20.17;8.75;;;;;;;7.22;100.00;101442.06;4891731;29;20032;-88
2022/09/25 06:55:57;;;;;;;20.00;9.00;;;;;;;7.47;100.00;101476.69;4899712;29;20039;-88
2022/09/25 06:58:24;;;;;;;27.25;9.13;;;;;;;7.42;100.00;101476.50;4897698;29;20041;-86
2022/09/25 07:00:51;;;;;;;23.95;8.90;;;;;;;7.55;100.00;101484.41;4897296;29;20536;-87
2022/09/25 07:06:04;;;;;;;27.88;9.65;;;;;;;7.68;100.00;101472.75;4896909;29;20519;-88
2022/09/25 07:08:29;;;;;;;27.60;10.98;;;;;;;7.82;100.00;101475.28;4896012;29;20025;-88
2022/09/25 07:10:56;;;;;;;30.83;11.57;;;;;;;7.92;100.00;101480.91;4899571;29;20104;-89
2022/09/25 07:13:25;;;;;;;23.80;11.97;;;;;;;8.10;100.00;101481.91;4901963;29;20388;-91
2022/09/25 07:15:55;;;;;;;25.87;11.97;;;;;;;8.09;100.00;101480.28;4901740;29;20857;-89
2022/09/25 07:18:21;;;;;;;24.13;11.35;;;;;;;8.11;100.00;101488.88;4883473;29;20112;-90
2022/09/25 07:20:47;;;;;;;27.33;12.32;;;;;;;8.26;100.00;101483.97;4902487;29;20025;-89
2022/09/25 07:23:13;;;;;;;32.15;12.77;;;;;;;8.40;100.00;101491.81;4900025;29;20113;-89
2022/09/25 07:25:39;;;;;;;29.33;12.85;;;;;;;8.39;100.00;101487.50;4908244;29;20028;-89
2022/09/25 07:28:06;;;;;;;32.97;12.70;;;;;;;8.48;100.00;101484.31;4882373;29;20039;-88
2022/09/25 07:30:32;;;;;;;31.95;13.02;;;;;;;8.59;100.00;101493.38;4901126;29;20044;-92
2022/09/25 07:32:58;;;;;;;29.73;14.77;;;;;;;8.73;100.00;101494.00;4903777;29;20071;-93
2022/09/25 07:35:23;;;;;;;29.10;12.70;;;;;;;8.78;100.00;101491.47;4918769;29;20288;-92
2022/09/25 07:37:49;;;;;;;26.50;11.93;;;;;;;8.92;100.00;101494.78;4919272;29;20032;-90
2022/09/25 07:40:14;;;;;;;30.33;9.77;;;;;;;8.99;100.00;101480.47;4915470;29;20052;-89
2022/09/25 07:42:40;;;;;;;20.40;9.82;;;;;;;9.17;100.00;101500.94;4919321;29;20023;-89
2022/09/25 07:45:07;;;;;;;17.60;8.47;;;;;;;9.21;100.00;101494.09;4903081;29;20020;-90
2022/09/25 07:47:32;;;;;;;23.13;9.73;;;;;;;9.26;100.00;101496.06;4919181;29;20153;-89
2022/09/25 07:49:58;;;;;;;13.60;8.70;;;;;;;9.40;100.00;101492.91;4920015;29;20016;-90
2022/09/25 07:52:23;;;;;;;15.63;7.60;;;;;;;9.44;100.00;101492.44;4917492;29;20020;-91
2022/09/25 07:54:48;;;;;;;15.13;7.23;;;;;;;9.53;100.00;101493.72;4902755;29;20036;-90
2022/09/25 07:57:14;;;;;;;17.13;6.35;;;;;;;9.74;100.00;101499.53;4919819;29;20045;-91
2022/09/25 07:59:39;;;;;;;18.10;7.73;;;;;;;9.83;100.00;101490.06;4916392;29;20052;-91
2022/09/25 08:02:05;;;;;;;12.13;5.77;;;;;;;9.90;100.00;101488.09;4901225;29;20016;-91
2022/09/25 08:04:30;;;;;;;11.25;5.78;;;;;;;10.00;100.00;101488.28;4916977;29;20020;-89
2022/09/25 08:06:59;;;;;;;12.53;5.77;;;;;;;10.13;100.00;101481.84;4901202;29;20025;-93
2022/09/25 08:09:24;;;;;;;12.30;5.00;;;;;;;10.25;100.00;101489.84;4917581;29;20060;-89
2022/09/25 08:11:50;;;;;;;11.90;5.60;;;;;;;10.30;100.00;101483.75;4917909;29;20024;-90
2022/09/25 08:14:17;;;;;;;13.90;5.07;;;;;;;10.32;100.00;101481.66;4903289;29;20025;-90
2022/09/25 08:16:42;;;;;;;8.70;5.07;;;;;;;10.41;100.00;101490.94;4919627;29;20033;-90
2022/09/25 08:19:10;;;;;;;9.80;4.40;;;;;;;10.49;100.00;101480.91;4919103;29;20070;-89
2022/09/25 08:21:35;;;;;;;9.43;3.67;;;;;;;10.62;100.00;101483.25;4916277;29;20021;-90
2022/09/25 08:24:01;;;;;;;5.73;3.07;;;;;;;10.73;100.00;101484.25;4919854;29;20072;-89
2022/09/25 08:26:27;;;;;;;8.05;3.55;;;;;;;10.85;100.00;101493.06;4919448;29;20044;-90
2022/09/25 08:28:53;;;;;;;5.22;2.70;;;;;;;10.89;100.00;101482.66;4919113;29;20009;-90
2022/09/25 08:31:18;;;;;;;8.10;3.10;;;;;;;11.03;100.00;101496.53;4918647;29;20039;-91
2022/09/25 08:33:45;;;;;;;6.63;2.93;;;;;;;11.03;100.00;101488.50;4918808;29;20042;-90
2022/09/25 08:36:10;;;;;;;8.77;2.80;;;;;;;11.09;100.00;101495.56;4916208;29;20024;-91
2022/09/25 08:38:36;;;;;;;10.50;2.90;;;;;;;11.14;100.00;101492.13;4916577;29;20080;-92
2022/09/25 08:41:10;;;;;;;7.47;2.35;;;;;;;11.24;100.00;101486.09;4915605;29;20048;-89
2022/09/25 08:43:41;;;;;;;9.50;2.40;;;;;;;11.27;100.00;101497.19;4902300;29;20013;-89
2022/09/25 08:49:05;;;;;;;9.32;2.78;;;;;;;11.32;100.00;101489.19;4909030;29;20040;-89
2022/09/25 08:51:52;;;;;;;6.38;2.65;;;;;;;11.47;100.00;101493.16;4914921;29;20060;-89
2022/09/25 08:54:24;;;;;;;7.63;2.50;;;;;;;11.55;100.00;101492.72;4915694;29;20084;-88
2022/09/25 08:56:55;;;;;;;11.57;3.08;;;;;;;11.62;100.00;101495.22;4918197;29;20029;-88
2022/09/25 08:59:37;;;;;;;8.30;1.83;;;;;;;11.72;100.00;101506.09;4914464;29;20043;-87
2022/09/25 09:02:14;;;;;;;9.07;2.35;;;;;;;11.90;100.00;101501.50;4902753;29;20055;-88
2022/09/25 09:05:00;;;;;;;7.55;1.80;;;;;;;11.91;100.00;101495.06;4895931;29;20069;-88
2022/09/25 09:07:41;;;;;;;8.23;1.77;;;;;;;11.96;100.00;101487.88;4894294;29;20454;-88
2022/09/25 09:10:13;;;;;;;6.40;1.77;;;;;;;12.06;100.00;101491.75;4894475;29;20033;-89
2022/09/25 09:12:46;;;;;;;9.53;1.30;;;;;;;12.18;100.00;101486.25;4895022;29;20348;-88
2022/09/25 09:15:24;;;;;;;10.48;1.50;;;;;;;12.31;100.00;101493.09;4894316;29;20263;-89
2022/09/25 09:17:50;;;;;;;8.05;1.63;;;;;;;12.27;100.00;101480.16;4892094;29;20083;-90
2022/09/25 09:20:27;;;;;;;8.50;1.88;;;;;;;12.36;100.00;101480.53;4897388;29;20048;-90
2022/09/25 09:22:55;;;;;;;11.60;1.70;;;;;;;12.45;100.00;101490.84;4898518;29;20040;-89
2022/09/25 09:25:34;;;;;;;7.22;1.52;;;;;;;12.54;100.00;101487.44;4897792;29;20051;-88
2022/09/25 09:28:19;;;;;;;7.23;1.30;;;;;;;12.69;100.00;101477.88;4897927;29;20429;-92
2022/09/25 09:31:01;;;;;;;9.23;1.50;;;;;;;12.81;99.32;101481.19;4897199;29;20332;-91
2022/09/25 09:33:49;;;;;;;6.28;1.27;;;;;;;12.82;97.50;101487.41;4901198;29;20480;-94
2022/09/25 09:36:29;;;;;;;6.22;1.15;;;;;;;12.83;97.33;101487.13;4898693;29;20044;-92
2022/09/25 09:39:12;;;;;;;4.93;1.10;;;;;;;12.88;96.27;101478.28;4895398;29;20656;-94
2022/09/25 09:42:00;;;;;;;6.82;1.25;;;;;;;12.99;89.94;101489.94;4888423;29;20061;-93
2022/09/25 09:44:37;;;;;;;4.38;0.90;;;;;;;13.02;92.62;101482.19;4895193;29;20060;-92
2022/09/25 09:47:38;;;;;;;3.80;0.80;;;;;;;13.16;93.37;101479.03;4899203;29;20055;-93
2022/09/25 09:50:24;;;;;;;3.92;1.00;;;;;;;13.39;92.05;101485.09;4887115;29;20096;-90
2022/09/25 09:53:04;;;;;;;4.97;1.00;;;;;;;13.51;91.84;101471.47;4898622;29;20509;-91
2022/09/25 09:55:49;;;;;;;6.07;1.17;;;;;;;13.64;89.26;101481.75;4887432;29;20036;-89
2022/09/25 09:58:23;;;;;;;6.07;1.10;;;;;;;13.78;89.14;101488.28;4895027;29;20301;-90
2022/09/25 10:00:50;;;;;;;4.05;1.00;;;;;;;13.89;90.14;101477.53;4894629;29;20688;-92
2022/09/25 10:03:23;;;;;;;3.30;0.80;;;;;;;13.96;91.39;101478.09;4897343;29;20346;-88
2022/09/25 10:05:52;;;;;;;8.23;1.23;;;;;;;14.02;84.77;101487.00;4899146;29;20043;-90
2022/09/25 10:08:17;;;;;;;7.40;0.98;;;;;;;14.04;84.30;101474.06;4904154;29;20100;-90
2022/09/25 10:10:46;;;;;;;6.50;0.87;;;;;;;14.09;80.90;101464.13;4898435;29;20429;-89
2022/09/25 10:13:15;;;;;;;5.07;0.75;;;;;;;14.20;80.95;101472.25;4898496;29;20053;-88
2022/09/25 10:15:59;;;;;;;6.18;0.88;;;;;;;14.29;81.70;101469.81;4905442;29;20128;-88
2022/09/25 10:18:35;;;;;;;8.93;0.90;;;;;;;14.41;80.81;101461.50;4906658;29;20021;-90
2022/09/25 10:21:13;;;;;;;5.15;0.95;;;;;;;14.68;83.17;101462.06;4902863;29;20033;-90
2022/09/25 10:24:02;;;;;;;7.25;1.15;;;;;;;15.05;85.69;101467.44;4898845;29;20033;-88
2022/09/25 10:26:28;;;;;;;6.63;0.93;;;;;;;15.20;75.40;101469.28;4898109;29;20036;-89
2022/09/25 10:29:01;;;;;;;3.33;0.88;;;;;;;14.95;75.70;101458.28;4899978;29;20051;-90
2022/09/25 10:31:38;;;;;;;2.88;0.60;;;;;;;14.68;75.89;101463.97;4903705;29;20039;-90
2022/09/25 10:34:18;;;;;;;4.43;0.80;;;;;;;14.46;80.63;101464.16;4898359;29;20444;-89
2022/09/25 10:36:47;;;;;;;4.73;0.90;;;;;;;14.54;77.15;101459.06;4888887;29;20305;-91
2022/09/25 10:39:33;;;;;;;8.30;0.90;;;;;;;15.00;80.29;101465.56;4881703;29;20041;-87
2022/09/25 10:41:59;;;;;;;3.85;0.85;;;;;;;15.54;76.09;101458.66;4892168;29;20115;-87
2022/09/25 10:44:32;;;;;;;9.57;1.02;;;;;;;15.82;72.52;101461.78;4895038;29;20088;-87
2022/09/25 10:50:25;;;;;;;4.95;0.82;;;;;;;15.24;71.15;101473.06;4891140;29;20153;-90
2022/09/25 10:52:57;;;;;;;5.15;0.80;;;;;;;14.87;70.48;101463.41;4878091;29;20089;-88
2022/09/25 10:55:29;;;;;;;4.70;0.90;;;;;;;14.69;72.44;101452.88;4885134;29;20032;-88
2022/09/25 10:58:09;;;;;;;4.57;0.90;;;;;;;14.92;76.11;101460.69;4895566;29;20047;-89
2022/09/25 11:00:52;;;;;;;2.40;0.80;;;;;;;15.32;73.66;101456.31;4894396;29;20040;-90
2022/09/25 11:03:31;;;;;;;4.40;0.80;;;;;;;15.75;71.98;101455.88;4896209;29;20276;-88
2022/09/25 11:06:04;;;;;;;4.60;0.82;;;;;;;15.92;63.38;101457.44;4895200;29;20060;-88
2022/09/25 11:08:33;;;;;;;2.78;0.80;;;;;;;15.79;64.75;101454.22;4896142;29;20040;-89
2022/09/25 11:11:01;;;;;;;6.32;0.85;;;;;;;15.46;66.29;101459.22;4893762;29;20028;-88
2022/09/25 11:13:35;;;;;;;5.40;1.00;;;;;;;15.31;67.80;101451.97;4895348;29;20049;-88
2022/09/25 11:16:09;;;;;;;5.65;0.90;;;;;;;15.49;66.75;101458.69;4896702;29;20029;-88
2022/09/25 11:18:48;;;;;;;3.58;0.80;;;;;;;15.86;68.52;101457.47;4895022;29;20033;-88
2022/09/25 11:21:48;;;;;;;3.75;0.80;;;;;;;16.23;69.50;101459.97;4893763;29;20445;-87
2022/09/25 11:24:22;;;;;;;2.72;1.30;;;;;;;16.40;66.08;101448.75;4866191;29;20113;-87
2022/09/25 11:27:10;;;;;;;5.37;0.90;;;;;;;16.48;63.33;101446.25;4896039;29;20033;-89
2022/09/25 11:29:53;;;;;;;3.93;0.70;;;;;;;16.65;64.26;101450.44;4896550;29;20281;-88
2022/09/25 11:32:33;;;;;;;6.35;0.80;;;;;;;16.84;64.46;101453.28;4893540;29;20028;-94
2022/09/25 11:35:21;;;;;;;2.90;0.75;;;;;;;16.98;64.80;101439.88;4894435;29;20040;-91
2022/09/25 11:41:21;;;;;;;3.45;0.70;;;;;;;16.39;60.75;101447.97;4887998;29;20089;-89
2022/09/25 11:43:58;;;;;;;5.45;0.90;;;;;;;16.25;63.58;101445.06;4891503;29;20029;-89
2022/09/25 11:46:39;;;;;;;4.10;0.80;;;;;;;16.23;65.81;101443.75;4877861;29;20370;-90
2022/09/25 11:49:19;;;;;;;1.98;0.60;;;;;;;16.47;63.44;101433.81;4895571;29;20029;-89
2022/09/25 11:51:57;;;;;;;2.42;0.60;;;;;;;16.77;63.08;101431.94;4893591;29;20075;-89
2022/09/25 11:54:29;;;;;;;3.30;0.50;;;;;;;16.85;58.65;101427.00;4895367;29;20033;-89
2022/09/25 11:57:15;;;;;;;1.47;0.67;;;;;;;16.98;61.18;101414.72;4898951;29;20320;-90
2022/09/25 11:59:59;;;;;;;3.70;0.70;;;;;;;17.20;60.91;101428.56;4909302;29;20035;-89